sensor_id;sensor_type;location;lat;lon;timestamp;pressure;altitude;pressure_sealevel;temperature;humidity
22311;BME280;11323;49.610;11.016;2023-11-18T00:01:08;99004.22;;;4.59;76.74
22311;BME280;11323;49.610;11.016;2023-11-18T00:06:09;99017.56;;;4.51;76.89
22311;BME280;11323;49.610;11.016;2023-11-18T00:11:10;99014.28;;;4.49;76.56
22311;BME280;11323;49.610;11.016;2023-11-18T00:16:11;99025.47;;;4.45;76.92
22311;BME280;11323;49.610;11.016;2023-11-18T00:21:17;99024.31;;;4.39;77.03
22311;BME280;11323;49.610;11.016;2023-11-18T00:26:17;99017.28;;;4.32;76.61
22311;BME280;11323;49.610;11.016;2023-11-18T00:31:23;99024.94;;;4.27;76.78
22311;BME280;11323;49.610;11.016;2023-11-18T00:36:23;99019.53;;;4.20;76.64
22311;BME280;11323;49.610;11.016;2023-11-18T00:41:24;99024.38;;;4.17;76.77
22311;BME280;11323;49.610;11.016;2023-11-18T00:46:25;99026.56;;;4.13;76.73
22311;BME280;11323;49.610;11.016;2023-11-18T00:52:32;99019.97;;;4.09;76.58
22311;BME280;11323;49.610;11.016;2023-11-18T00:57:34;99019.75;;;3.96;76.71
22311;BME280;11323;49.610;11.016;2023-11-18T01:02:34;99022.75;;;3.93;76.91
22311;BME280;11323;49.610;11.016;2023-11-18T01:07:35;99024.75;;;3.91;77.05
22311;BME280;11323;49.610;11.016;2023-11-18T01:12:36;99026.41;;;3.92;77.09
22311;BME280;11323;49.610;11.016;2023-11-18T01:17:38;99029.75;;;3.86;77.16
22311;BME280;11323;49.610;11.016;2023-11-18T01:22:39;99035.25;;;3.85;76.75
22311;BME280;11323;49.610;11.016;2023-11-18T01:27:41;99034.78;;;3.81;77.17
22311;BME280;11323;49.610;11.016;2023-11-18T01:32:42;99035.13;;;3.78;77.02
22311;BME280;11323;49.610;11.016;2023-11-18T01:37:43;99041.13;;;3.72;77.12
22311;BME280;11323;49.610;11.016;2023-11-18T01:42:44;99042.47;;;3.68;76.79
22311;BME280;11323;49.610;11.016;2023-11-18T01:47:47;99047.78;;;3.68;76.75
22311;BME280;11323;49.610;11.016;2023-11-18T01:52:51;99057.38;;;3.69;76.41
22311;BME280;11323;49.610;11.016;2023-11-18T01:57:53;99048.66;;;3.60;76.69
22311;BME280;11323;49.610;11.016;2023-11-18T02:02:55;99052.13;;;3.61;76.98
22311;BME280;11323;49.610;11.016;2023-11-18T02:07:56;99047.47;;;3.63;76.52
22311;BME280;11323;49.610;11.016;2023-11-18T02:13:10;99057.06;;;3.64;77.18
22311;BME280;11323;49.610;11.016;2023-11-18T02:18:14;99053.16;;;3.60;77.02
22311;BME280;11323;49.610;11.016;2023-11-18T02:23:15;99056.78;;;3.59;76.60
22311;BME280;11323;49.610;11.016;2023-11-18T02:28:17;99058.78;;;3.57;76.50
22311;BME280;11323;49.610;11.016;2023-11-18T02:33:28;99054.31;;;3.57;76.57
22311;BME280;11323;49.610;11.016;2023-11-18T02:38:41;99062.06;;;3.59;76.78
22311;BME280;11323;49.610;11.016;2023-11-18T02:43:46;99055.16;;;3.58;76.70
22311;BME280;11323;49.610;11.016;2023-11-18T02:48:47;99063.59;;;3.53;76.31
22311;BME280;11323;49.610;11.016;2023-11-18T02:53:48;99062.78;;;3.53;76.58
22311;BME280;11323;49.610;11.016;2023-11-18T02:58:49;99070.06;;;3.51;76.83
22311;BME280;11323;49.610;11.016;2023-11-18T03:03:50;99070.91;;;3.51;76.64
22311;BME280;11323;49.610;11.016;2023-11-18T03:08:51;99072.41;;;3.46;76.66
22311;BME280;11323;49.610;11.016;2023-11-18T03:13:52;99075.56;;;3.41;76.60
22311;BME280;11323;49.610;11.016;2023-11-18T03:18:53;99076.91;;;3.37;76.91
22311;BME280;11323;49.610;11.016;2023-11-18T03:23:55;99079.75;;;3.36;76.98
22311;BME280;11323;49.610;11.016;2023-11-18T03:28:56;99073.81;;;3.34;76.26
22311;BME280;11323;49.610;11.016;2023-11-18T03:33:57;99068.84;;;3.31;77.00
22311;BME280;11323;49.610;11.016;2023-11-18T03:38:58;99084.09;;;3.29;76.54
22311;BME280;11323;49.610;11.016;2023-11-18T03:43:58;99086.09;;;3.27;76.59
22311;BME280;11323;49.610;11.016;2023-11-18T03:49:00;99088.38;;;3.30;76.42
22311;BME280;11323;49.610;11.016;2023-11-18T03:54:01;99097.34;;;3.29;76.44
22311;BME280;11323;49.610;11.016;2023-11-18T03:59:02;99091.03;;;3.30;76.45
22311;BME280;11323;49.610;11.016;2023-11-18T04:04:05;99091.03;;;3.30;76.36
22311;BME280;11323;49.610;11.016;2023-11-18T04:09:05;99098.97;;;3.30;76.54
22311;BME280;11323;49.610;11.016;2023-11-18T04:14:07;99092.84;;;3.29;76.09
22311;BME280;11323;49.610;11.016;2023-11-18T04:19:08;99091.19;;;3.28;76.45
22311;BME280;11323;49.610;11.016;2023-11-18T04:24:09;99093.69;;;3.30;76.12
22311;BME280;11323;49.610;11.016;2023-11-18T04:29:10;99100.97;;;3.28;76.25
22311;BME280;11323;49.610;11.016;2023-11-18T04:34:11;99102.78;;;3.27;76.29
22311;BME280;11323;49.610;11.016;2023-11-18T04:39:11;99102.00;;;3.19;76.12
22311;BME280;11323;49.610;11.016;2023-11-18T04:44:13;99093.72;;;3.14;75.99
22311;BME280;11323;49.610;11.016;2023-11-18T04:49:15;99099.72;;;3.08;76.05
22311;BME280;11323;49.610;11.016;2023-11-18T04:54:16;99085.84;;;3.06;76.53
22311;BME280;11323;49.610;11.016;2023-11-18T04:59:16;99086.00;;;2.96;76.03
22311;BME280;11323;49.610;11.016;2023-11-18T05:04:18;99076.72;;;3.00;76.10
22311;BME280;11323;49.610;11.016;2023-11-18T05:09:19;99068.28;;;3.05;76.37
22311;BME280;11323;49.610;11.016;2023-11-18T05:14:21;99067.97;;;3.08;75.94
22311;BME280;11323;49.610;11.016;2023-11-18T05:19:22;99076.88;;;3.07;75.77
22311;BME280;11323;49.610;11.016;2023-11-18T05:24:22;99085.19;;;3.04;76.20
22311;BME280;11323;49.610;11.016;2023-11-18T05:29:23;99102.41;;;3.00;75.86
22311;BME280;11323;49.610;11.016;2023-11-18T05:34:24;99092.00;;;2.90;75.79
22311;BME280;11323;49.610;11.016;2023-11-18T05:39:25;99094.78;;;2.89;76.09
22311;BME280;11323;49.610;11.016;2023-11-18T05:44:28;99097.50;;;2.81;76.09
22311;BME280;11323;49.610;11.016;2023-11-18T05:49:38;99097.81;;;2.78;75.95
22311;BME280;11323;49.610;11.016;2023-11-18T05:54:39;99097.31;;;2.74;76.04
22311;BME280;11323;49.610;11.016;2023-11-18T05:59:40;99105.25;;;2.74;75.84
22311;BME280;11323;49.610;11.016;2023-11-18T06:04:41;99093.53;;;2.68;75.57
22311;BME280;11323;49.610;11.016;2023-11-18T06:09:44;99106.09;;;2.66;75.72
22311;BME280;11323;49.610;11.016;2023-11-18T06:14:46;99102.13;;;2.62;75.97
22311;BME280;11323;49.610;11.016;2023-11-18T06:19:47;99111.06;;;2.61;76.04
22311;BME280;11323;49.610;11.016;2023-11-18T06:24:48;99110.06;;;2.62;75.89
22311;BME280;11323;49.610;11.016;2023-11-18T06:29:49;99114.03;;;2.58;75.98
22311;BME280;11323;49.610;11.016;2023-11-18T06:34:51;99107.91;;;2.58;75.79
22311;BME280;11323;49.610;11.016;2023-11-18T06:39:52;99112.72;;;2.62;75.74
22311;BME280;11323;49.610;11.016;2023-11-18T06:44:53;99114.53;;;2.70;75.55
22311;BME280;11323;49.610;11.016;2023-11-18T06:49:54;99104.44;;;2.73;75.79
22311;BME280;11323;49.610;11.016;2023-11-18T06:54:55;99102.44;;;2.84;75.32
22311;BME280;11323;49.610;11.016;2023-11-18T06:59:56;99103.25;;;2.92;75.18
22311;BME280;11323;49.610;11.016;2023-11-18T07:04:58;99093.16;;;2.96;75.54
22311;BME280;11323;49.610;11.016;2023-11-18T07:09:59;99110.00;;;2.95;75.52
22311;BME280;11323;49.610;11.016;2023-11-18T07:14:59;99121.59;;;2.94;75.81
22311;BME280;11323;49.610;11.016;2023-11-18T07:20:01;99126.22;;;2.92;75.20
22311;BME280;11323;49.610;11.016;2023-11-18T07:25:03;99135.97;;;2.91;75.32
22311;BME280;11323;49.610;11.016;2023-11-18T07:30:05;99142.44;;;2.89;75.14
22311;BME280;11323;49.610;11.016;2023-11-18T07:35:07;99137.13;;;2.89;75.19
22311;BME280;11323;49.610;11.016;2023-11-18T07:40:11;99142.91;;;3.00;75.18
22311;BME280;11323;49.610;11.016;2023-11-18T07:45:12;99145.69;;;3.23;75.53
22311;BME280;11323;49.610;11.016;2023-11-18T07:50:18;99143.13;;;3.37;75.20
22311;BME280;11323;49.610;11.016;2023-11-18T07:55:20;99162.81;;;3.43;75.27
22311;BME280;11323;49.610;11.016;2023-11-18T08:00:24;99151.53;;;3.49;75.45
22311;BME280;11323;49.610;11.016;2023-11-18T08:05:25;99161.78;;;3.60;75.81
22311;BME280;11323;49.610;11.016;2023-11-18T08:10:26;99169.63;;;3.76;75.03
22311;BME280;11323;49.610;11.016;2023-11-18T08:15:29;99198.78;;;4.07;74.98
22311;BME280;11323;49.610;11.016;2023-11-18T08:20:31;99174.44;;;4.03;74.95
22311;BME280;11323;49.610;11.016;2023-11-18T08:25:34;99169.47;;;4.08;74.97
22311;BME280;11323;49.610;11.016;2023-11-18T08:30:37;99152.50;;;4.17;75.05
22311;BME280;11323;49.610;11.016;2023-11-18T08:35:38;99134.22;;;4.22;75.01
22311;BME280;11323;49.610;11.016;2023-11-18T08:40:41;99154.25;;;4.25;74.89
22311;BME280;11323;49.610;11.016;2023-11-18T08:45:43;99154.53;;;4.30;74.81
22311;BME280;11323;49.610;11.016;2023-11-18T08:50:44;99155.50;;;4.37;74.58
22311;BME280;11323;49.610;11.016;2023-11-18T08:55:45;99159.59;;;4.39;74.96
22311;BME280;11323;49.610;11.016;2023-11-18T09:00:57;99168.22;;;4.41;74.80
22311;BME280;11323;49.610;11.016;2023-11-18T09:06:15;99170.81;;;4.49;74.75
22311;BME280;11323;49.610;11.016;2023-11-18T09:11:19;99159.50;;;4.55;74.70
22311;BME280;11323;49.610;11.016;2023-11-18T09:16:21;99167.66;;;4.69;74.67
22311;BME280;11323;49.610;11.016;2023-11-18T09:21:29;99154.97;;;4.79;74.34
22311;BME280;11323;49.610;11.016;2023-11-18T09:26:33;99160.22;;;4.87;74.21
22311;BME280;11323;49.610;11.016;2023-11-18T09:31:36;99143.19;;;4.96;74.70
22311;BME280;11323;49.610;11.016;2023-11-18T09:36:37;99140.91;;;4.93;74.44
22311;BME280;11323;49.610;11.016;2023-11-18T09:41:38;99148.16;;;4.99;74.76
22311;BME280;11323;49.610;11.016;2023-11-18T09:46:42;99141.41;;;5.11;74.32
22311;BME280;11323;49.610;11.016;2023-11-18T09:51:47;99159.25;;;5.31;74.45
22311;BME280;11323;49.610;11.016;2023-11-18T09:57:23;99145.88;;;5.39;74.31
22311;BME280;11323;49.610;11.016;2023-11-18T10:02:29;99142.16;;;5.34;74.20
22311;BME280;11323;49.610;11.016;2023-11-18T10:07:30;99138.19;;;5.30;74.36
22311;BME280;11323;49.610;11.016;2023-11-18T10:12:33;99133.16;;;5.35;74.60
22311;BME280;11323;49.610;11.016;2023-11-18T10:17:42;99126.72;;;5.44;74.57
22311;BME280;11323;49.610;11.016;2023-11-18T10:23:09;99134.25;;;5.55;74.87
22311;BME280;11323;49.610;11.016;2023-11-18T10:28:32;99123.88;;;5.60;74.47
22311;BME280;11323;49.610;11.016;2023-11-18T10:33:38;99140.09;;;5.65;74.30
22311;BME280;11323;49.610;11.016;2023-11-18T10:38:42;99140.09;;;5.65;74.28
22311;BME280;11323;49.610;11.016;2023-11-18T10:44:08;99138.63;;;5.63;74.75
22311;BME280;11323;49.610;11.016;2023-11-18T10:49:16;99139.81;;;5.75;74.77
22311;BME280;11323;49.610;11.016;2023-11-18T10:54:17;99139.53;;;5.84;74.84
22311;BME280;11323;49.610;11.016;2023-11-18T10:59:19;99135.94;;;5.92;74.63
22311;BME280;11323;49.610;11.016;2023-11-18T11:04:20;99125.38;;;5.98;74.36
22311;BME280;11323;49.610;11.016;2023-11-18T11:09:24;99127.28;;;6.04;74.68
22311;BME280;11323;49.610;11.016;2023-11-18T11:14:33;99122.88;;;6.11;74.34
22311;BME280;11323;49.610;11.016;2023-11-18T11:30:10;99123.13;;;6.16;74.53
22311;BME280;11323;49.610;11.016;2023-11-18T11:35:21;99124.63;;;6.25;74.68
22311;BME280;11323;49.610;11.016;2023-11-18T11:40:23;99110.56;;;6.31;74.28
22311;BME280;11323;49.610;11.016;2023-11-18T11:45:24;99107.78;;;6.39;74.39
22311;BME280;11323;49.610;11.016;2023-11-18T11:50:33;99098.63;;;6.49;74.33
22311;BME280;11323;49.610;11.016;2023-11-18T11:55:49;99090.94;;;6.60;74.73
22311;BME280;11323;49.610;11.016;2023-11-18T12:00:53;99079.78;;;6.71;74.60
22311;BME280;11323;49.610;11.016;2023-11-18T12:05:55;99065.72;;;6.77;74.09
22311;BME280;11323;49.610;11.016;2023-11-18T12:10:57;99057.38;;;6.87;74.58
22311;BME280;11323;49.610;11.016;2023-11-18T12:15:58;99028.28;;;6.92;74.36
22311;BME280;11323;49.610;11.016;2023-11-18T12:20:59;99009.88;;;6.97;74.63
22311;BME280;11323;49.610;11.016;2023-11-18T12:26:39;98995.16;;;7.01;74.47
22311;BME280;11323;49.610;11.016;2023-11-18T12:31:44;98984.53;;;7.07;74.19
22311;BME280;11323;49.610;11.016;2023-11-18T12:37:10;98982.06;;;7.12;74.27
22311;BME280;11323;49.610;11.016;2023-11-18T12:43:03;98962.84;;;7.17;74.73
22311;BME280;11323;49.610;11.016;2023-11-18T12:48:06;98955.69;;;7.24;74.35
22311;BME280;11323;49.610;11.016;2023-11-18T12:53:12;98953.63;;;7.26;74.06
22311;BME280;11323;49.610;11.016;2023-11-18T12:58:15;98956.53;;;7.31;74.14
22311;BME280;11323;49.610;11.016;2023-11-18T13:03:16;98955.75;;;7.37;74.46
22311;BME280;11323;49.610;11.016;2023-11-18T13:08:18;98957.38;;;7.38;74.23
22311;BME280;11323;49.610;11.016;2023-11-18T13:13:23;98949.59;;;7.43;74.48
22311;BME280;11323;49.610;11.016;2023-11-18T13:18:23;98939.56;;;7.45;74.01
22311;BME280;11323;49.610;11.016;2023-11-18T13:23:25;98942.22;;;7.45;74.36
22311;BME280;11323;49.610;11.016;2023-11-18T13:28:26;98943.44;;;7.49;74.21
22311;BME280;11323;49.610;11.016;2023-11-18T13:33:27;98945.72;;;7.52;74.39
22311;BME280;11323;49.610;11.016;2023-11-18T13:38:28;98934.63;;;7.55;74.33
22311;BME280;11323;49.610;11.016;2023-11-18T13:43:43;98946.97;;;7.56;74.22
22311;BME280;11323;49.610;11.016;2023-11-18T13:48:48;98935.88;;;7.59;74.56
22311;BME280;11323;49.610;11.016;2023-11-18T13:53:52;98930.97;;;7.63;74.02
22311;BME280;11323;49.610;11.016;2023-11-18T13:58:53;98907.41;;;7.66;74.27
22311;BME280;11323;49.610;11.016;2023-11-18T14:03:55;98892.81;;;7.62;74.31
22311;BME280;11323;49.610;11.016;2023-11-18T14:08:55;98886.69;;;7.68;74.27
22311;BME280;11323;49.610;11.016;2023-11-18T14:13:56;98896.13;;;7.64;74.56
22311;BME280;11323;49.610;11.016;2023-11-18T14:18:59;98903.69;;;7.67;74.74
22311;BME280;11323;49.610;11.016;2023-11-18T14:24:00;98903.06;;;7.65;74.86
22311;BME280;11323;49.610;11.016;2023-11-18T14:29:03;98908.81;;;7.69;74.58
22311;BME280;11323;49.610;11.016;2023-11-18T14:34:05;98901.44;;;7.64;74.64
22311;BME280;11323;49.610;11.016;2023-11-18T14:39:05;98876.81;;;7.62;74.52
22311;BME280;11323;49.610;11.016;2023-11-18T14:44:10;98880.50;;;7.61;74.57
22311;BME280;11323;49.610;11.016;2023-11-18T14:49:12;98872.69;;;7.53;74.85
22311;BME280;11323;49.610;11.016;2023-11-18T14:54:13;98871.88;;;7.59;74.85
22311;BME280;11323;49.610;11.016;2023-11-18T14:59:13;98860.59;;;7.57;74.79
22311;BME280;11323;49.610;11.016;2023-11-18T15:04:14;98849.97;;;7.51;74.69
22311;BME280;11323;49.610;11.016;2023-11-18T15:09:16;98848.50;;;7.48;75.38
22311;BME280;11323;49.610;11.016;2023-11-18T15:14:17;98824.31;;;7.43;74.88
22311;BME280;11323;49.610;11.016;2023-11-18T15:19:18;98814.06;;;7.40;75.26
22311;BME280;11323;49.610;11.016;2023-11-18T15:24:20;98814.06;;;7.40;74.96
22311;BME280;11323;49.610;11.016;2023-11-18T15:29:21;98795.59;;;7.39;75.17
22311;BME280;11323;49.610;11.016;2023-11-18T15:34:28;98793.78;;;7.39;75.00
22311;BME280;11323;49.610;11.016;2023-11-18T15:39:29;98797.44;;;7.38;75.08
22311;BME280;11323;49.610;11.016;2023-11-18T15:44:30;98792.72;;;7.40;74.86
22311;BME280;11323;49.610;11.016;2023-11-18T15:49:34;98800.09;;;7.38;75.16
22311;BME280;11323;49.610;11.016;2023-11-18T15:54:36;98809.16;;;7.37;75.20
22311;BME280;11323;49.610;11.016;2023-11-18T15:59:37;98803.38;;;7.40;75.67
22311;BME280;11323;49.610;11.016;2023-11-18T16:04:38;98822.66;;;7.42;74.89
22311;BME280;11323;49.610;11.016;2023-11-18T16:09:40;98830.03;;;7.40;75.23
22311;BME280;11323;49.610;11.016;2023-11-18T16:14:41;98826.75;;;7.38;75.31
22311;BME280;11323;49.610;11.016;2023-11-18T16:19:42;98825.53;;;7.41;75.46
22311;BME280;11323;49.610;11.016;2023-11-18T16:24:44;98838.66;;;7.42;74.94
22311;BME280;11323;49.610;11.016;2023-11-18T16:29:44;98830.84;;;7.34;74.89
22311;BME280;11323;49.610;11.016;2023-11-18T16:34:45;98818.16;;;7.36;75.18
22311;BME280;11323;49.610;11.016;2023-11-18T16:39:47;98820.59;;;7.38;75.35
22311;BME280;11323;49.610;11.016;2023-11-18T16:44:47;98823.91;;;7.33;75.60
22311;BME280;11323;49.610;11.016;2023-11-18T16:49:48;98811.59;;;7.32;75.37
22311;BME280;11323;49.610;11.016;2023-11-18T16:54:49;98805.47;;;7.32;75.17
22311;BME280;11323;49.610;11.016;2023-11-18T16:59:50;98804.22;;;7.34;75.20
22311;BME280;11323;49.610;11.016;2023-11-18T17:04:51;98794.78;;;7.38;75.43
22311;BME280;11323;49.610;11.016;2023-11-18T17:09:52;98789.44;;;7.38;75.53
22311;BME280;11323;49.610;11.016;2023-11-18T17:14:52;98782.66;;;7.36;75.26
22311;BME280;11323;49.610;11.016;2023-11-18T17:19:53;98785.94;;;7.38;75.26
22311;BME280;11323;49.610;11.016;2023-11-18T17:24:54;98772.03;;;7.42;75.21
22311;BME280;11323;49.610;11.016;2023-11-18T17:29:55;98771.44;;;7.34;75.83
22311;BME280;11323;49.610;11.016;2023-11-18T17:34:56;98773.88;;;7.35;75.21
22311;BME280;11323;49.610;11.016;2023-11-18T17:39:57;98755.84;;;7.37;75.43
22311;BME280;11323;49.610;11.016;2023-11-18T17:44:58;98754.19;;;7.36;75.54
22311;BME280;11323;49.610;11.016;2023-11-18T17:50:06;98740.25;;;7.34;75.85
22311;BME280;11323;49.610;11.016;2023-11-18T17:55:12;98741.28;;;7.33;76.08
22311;BME280;11323;49.610;11.016;2023-11-18T18:00:14;98717.28;;;7.33;75.61
22311;BME280;11323;49.610;11.016;2023-11-18T18:05:22;98709.50;;;7.32;76.30
22311;BME280;11323;49.610;11.016;2023-11-18T18:10:23;98699.25;;;7.22;76.12
22311;BME280;11323;49.610;11.016;2023-11-18T18:15:27;98698.22;;;7.23;76.50
22311;BME280;11323;49.610;11.016;2023-11-18T18:20:28;98683.69;;;7.19;76.50
22311;BME280;11323;49.610;11.016;2023-11-18T18:25:29;98672.22;;;7.12;76.59
22311;BME280;11323;49.610;11.016;2023-11-18T18:30:30;98660.53;;;7.13;76.25
22311;BME280;11323;49.610;11.016;2023-11-18T18:35:31;98646.41;;;7.06;76.71
22311;BME280;11323;49.610;11.016;2023-11-18T18:40:32;98633.69;;;7.08;76.72
22311;BME280;11323;49.610;11.016;2023-11-18T18:45:33;98631.66;;;7.10;76.21
22311;BME280;11323;49.610;11.016;2023-11-18T18:50:34;98618.50;;;7.15;76.77
22311;BME280;11323;49.610;11.016;2023-11-18T18:55:38;98618.13;;;7.18;76.48
22311;BME280;11323;49.610;11.016;2023-11-18T19:00:39;98620.56;;;7.13;76.40
22311;BME280;11323;49.610;11.016;2023-11-18T19:05:41;98629.78;;;7.17;76.63
22311;BME280;11323;49.610;11.016;2023-11-18T19:10:41;98637.78;;;7.17;76.93
22311;BME280;11323;49.610;11.016;2023-11-18T19:15:43;98629.16;;;7.21;76.76
22311;BME280;11323;49.610;11.016;2023-11-18T19:20:44;98609.28;;;7.17;76.62
22311;BME280;11323;49.610;11.016;2023-11-18T19:25:45;98596.78;;;7.18;76.61
22311;BME280;11323;49.610;11.016;2023-11-18T19:30:46;98582.03;;;7.09;77.07
22311;BME280;11323;49.610;11.016;2023-11-18T19:35:48;98558.72;;;7.04;76.77
22311;BME280;11323;49.610;11.016;2023-11-18T19:40:49;98552.13;;;7.07;76.83
22311;BME280;11323;49.610;11.016;2023-11-18T19:45:50;98547.22;;;7.04;76.96
22311;BME280;11323;49.610;11.016;2023-11-18T19:50:52;98531.66;;;7.01;77.37
22311;BME280;11323;49.610;11.016;2023-11-18T19:55:53;98533.69;;;6.99;77.50
22311;BME280;11323;49.610;11.016;2023-11-18T20:00:54;98497.84;;;7.01;77.20
22311;BME280;11323;49.610;11.016;2023-11-18T20:05:55;98488.25;;;6.94;77.51
22311;BME280;11323;49.610;11.016;2023-11-18T20:10:56;98500.13;;;6.98;77.56
22311;BME280;11323;49.610;11.016;2023-11-18T20:15:57;98468.59;;;6.88;77.83
22311;BME280;11323;49.610;11.016;2023-11-18T20:20:58;98462.44;;;6.88;77.97
22311;BME280;11323;49.610;11.016;2023-11-18T20:25:59;98482.97;;;6.81;77.67
22311;BME280;11323;49.610;11.016;2023-11-18T20:31:03;98503.44;;;6.87;78.19
22311;BME280;11323;49.610;11.016;2023-11-18T20:36:09;98497.69;;;6.90;78.00
22311;BME280;11323;49.610;11.016;2023-11-18T20:41:10;98471.88;;;6.84;77.96
22311;BME280;11323;49.610;11.016;2023-11-18T20:46:14;98434.59;;;6.84;78.34
22311;BME280;11323;49.610;11.016;2023-11-18T20:51:15;98452.41;;;6.83;78.07
22311;BME280;11323;49.610;11.016;2023-11-18T20:56:19;98446.47;;;6.88;77.83
22311;BME280;11323;49.610;11.016;2023-11-18T21:01:26;98443.03;;;6.74;77.46
22311;BME280;11323;49.610;11.016;2023-11-18T21:06:27;98448.97;;;6.83;78.06
22311;BME280;11323;49.610;11.016;2023-11-18T21:11:32;98426.81;;;6.82;77.71
22311;BME280;11323;49.610;11.016;2023-11-18T21:16:33;98417.63;;;6.72;78.50
22311;BME280;11323;49.610;11.016;2023-11-18T21:21:36;98410.84;;;6.82;78.40
22311;BME280;11323;49.610;11.016;2023-11-18T21:26:37;98402.69;;;6.77;78.85
22311;BME280;11323;49.610;11.016;2023-11-18T21:31:42;98379.34;;;6.79;78.77
22311;BME280;11323;49.610;11.016;2023-11-18T21:36:43;98387.72;;;6.76;78.38
22311;BME280;11323;49.610;11.016;2023-11-18T21:41:44;98384.69;;;6.73;78.82
22311;BME280;11323;49.610;11.016;2023-11-18T21:46:47;98366.88;;;6.67;78.63
22311;BME280;11323;49.610;11.016;2023-11-18T21:51:51;98342.91;;;6.67;79.06
22311;BME280;11323;49.610;11.016;2023-11-18T21:56:52;98351.94;;;6.66;78.98
22311;BME280;11323;49.610;11.016;2023-11-18T22:01:53;98354.00;;;6.64;79.43
22311;BME280;11323;49.610;11.016;2023-11-18T22:06:58;98341.31;;;6.66;79.10
22311;BME280;11323;49.610;11.016;2023-11-18T22:12:01;98338.38;;;6.74;79.44
22311;BME280;11323;49.610;11.016;2023-11-18T22:17:06;98330.19;;;6.75;79.17
22311;BME280;11323;49.610;11.016;2023-11-18T22:22:09;98325.88;;;6.81;79.16
22311;BME280;11323;49.610;11.016;2023-11-18T22:27:27;98309.69;;;6.76;79.07
22311;BME280;11323;49.610;11.016;2023-11-18T22:33:01;98306.03;;;6.70;79.25
22311;BME280;11323;49.610;11.016;2023-11-18T22:38:07;98297.03;;;6.71;79.49
22311;BME280;11323;49.610;11.016;2023-11-18T22:43:18;98294.16;;;6.73;79.13
22311;BME280;11323;49.610;11.016;2023-11-18T22:48:35;98305.56;;;6.80;79.22
22311;BME280;11323;49.610;11.016;2023-11-18T22:53:36;98292.09;;;6.75;79.31
22311;BME280;11323;49.610;11.016;2023-11-18T22:59:02;98293.72;;;6.76;79.55
22311;BME280;11323;49.610;11.016;2023-11-18T23:04:06;98276.13;;;6.75;79.49
22311;BME280;11323;49.610;11.016;2023-11-18T23:09:47;98279.34;;;6.83;78.95
22311;BME280;11323;49.610;11.016;2023-11-18T23:14:52;98269.50;;;6.84;79.02
22311;BME280;11323;49.610;11.016;2023-11-18T23:20:34;98267.88;;;6.83;79.33
22311;BME280;11323;49.610;11.016;2023-11-18T23:25:38;98250.03;;;6.83;79.53
22311;BME280;11323;49.610;11.016;2023-11-18T23:30:45;98241.00;;;6.91;79.08
22311;BME280;11323;49.610;11.016;2023-11-18T23:35:58;98229.75;;;6.89;79.40
22311;BME280;11323;49.610;11.016;2023-11-18T23:41:03;98210.50;;;6.87;79.22
22311;BME280;11323;49.610;11.016;2023-11-18T23:46:04;98212.56;;;6.85;79.39
22311;BME280;11323;49.610;11.016;2023-11-18T23:51:10;98210.44;;;6.93;79.46
22311;BME280;11323;49.610;11.016;2023-11-18T23:56:11;98210.81;;;6.97;79.33
